Redford, Missouri
Current Conditions -  °F | °C
As of 9:35 AM on Saturday 20 Dec 2014 (Local Time) from KFAM Reporting Station
Overcast Overcast  
Wind Chill:   Ceiling: 2000
Heat Index:   Visibility: 8mi
Dew Point:   Wind: 3mph
Humidity: 93%   Direction: 120°ESE
Pressure: 30.28"   Gusts: NA
Location:  37.32°N, 90.9°W
Report Text: KFAM 201535Z AUTO 12003KT 8SM OVC020 02/01 A3028 RMK AO1
Loading
Personal Weather Stations






























Interactive Weather Map New forecast layout! Learn more

10-Day Weather Forecast

Advertisements
Track Severe Weather on mobile